createdAt,value
2023-04-12T00:01:23.742Z,81.15
2023-04-12T00:03:51.345Z,80.92
2023-04-12T00:06:19.375Z,81.07
2023-04-12T00:08:48.206Z,81.53
2023-04-12T00:11:15.957Z,81.58
2023-04-12T00:13:43.393Z,81.77
2023-04-12T00:16:11.408Z,81.62
2023-04-12T00:18:38.770Z,81.83
2023-04-12T00:21:07.363Z,80.84
2023-04-12T00:23:34.824Z,80.49
2023-04-12T00:26:04.705Z,80.80
2023-04-12T00:28:32.147Z,80.90
2023-04-12T00:31:00.111Z,81.86
2023-04-12T00:33:27.501Z,82.07
2023-04-12T00:35:55.256Z,81.73
2023-04-12T00:38:22.616Z,81.20
2023-04-12T00:40:50.495Z,81.21
2023-04-12T00:43:19.368Z,81.16
2023-04-12T00:45:47.788Z,81.65
2023-04-12T00:48:15.792Z,81.81
2023-04-12T00:50:43.600Z,81.21
2023-04-12T00:53:13.410Z,81.50
2023-04-12T00:55:43.975Z,80.60
2023-04-12T00:58:11.616Z,80.76
2023-04-12T01:00:40.909Z,81.41
2023-04-12T01:03:08.552Z,80.91
2023-04-12T01:05:43.759Z,80.36
2023-04-12T01:08:19.281Z,80.46
2023-04-12T01:10:54.083Z,80.17
2023-04-12T01:13:30.450Z,80.37
2023-04-12T01:16:07.479Z,80.02
2023-04-12T01:18:39.951Z,79.53
2023-04-12T01:21:09.453Z,79.20
2023-04-12T01:24:01.651Z,79.50
2023-04-12T01:26:39.594Z,79.46
2023-04-12T01:29:11.188Z,79.09
2023-04-12T01:31:41.477Z,79.68
2023-04-12T01:34:10.778Z,79.47
2023-04-12T01:36:39.771Z,79.87
2023-04-12T01:39:08.274Z,79.88
2023-04-12T01:41:40.188Z,79.56
2023-04-12T01:44:09.304Z,79.21
2023-04-12T01:46:37.085Z,79.31
2023-04-12T01:49:05.253Z,78.99
2023-04-12T01:51:40.726Z,78.94
2023-04-12T01:54:09.880Z,79.37
2023-04-12T01:56:40.625Z,79.43
2023-04-12T01:59:10.982Z,79.29
2023-04-12T02:01:39.080Z,79.51
2023-04-12T02:04:08.391Z,79.73
2023-04-12T02:06:38.060Z,79.42
2023-04-12T02:09:05.506Z,79.45
2023-04-12T02:11:33.385Z,79.39
2023-04-12T02:14:00.792Z,78.94
2023-04-12T02:16:30.237Z,78.79
2023-04-12T02:18:57.971Z,78.51
2023-04-12T02:21:25.838Z,78.04
2023-04-12T02:23:53.582Z,77.94
2023-04-12T02:26:21.425Z,77.53
2023-04-12T02:28:48.906Z,76.83
2023-04-12T02:31:16.773Z,77.13
2023-04-12T02:33:45.803Z,77.15
2023-04-12T02:36:13.626Z,77.76
2023-04-12T02:38:41.180Z,77.52
2023-04-12T02:41:09.105Z,78.13
2023-04-12T02:43:36.535Z,78.14
2023-04-12T02:46:04.433Z,77.74
2023-04-12T02:48:31.824Z,77.79
2023-04-12T02:51:01.088Z,77.92
2023-04-12T02:53:28.440Z,78.24
2023-04-12T02:55:56.306Z,78.24
2023-04-12T02:58:23.815Z,77.22
2023-04-12T03:00:51.711Z,77.58
2023-04-12T03:03:19.581Z,77.41
2023-04-12T03:05:47.798Z,77.77
2023-04-12T03:08:16.919Z,77.98
2023-04-12T03:10:45.049Z,78.10
2023-04-12T03:13:12.662Z,78.90
2023-04-12T03:15:44.641Z,79.41
2023-04-12T03:18:12.112Z,79.66
2023-04-12T03:20:40.276Z,79.32
2023-04-12T03:23:07.682Z,79.80
2023-04-12T03:25:36.843Z,80.30
2023-04-12T03:28:04.470Z,79.79
2023-04-12T03:30:32.617Z,79.90
2023-04-12T03:33:00.258Z,79.73
2023-04-12T03:35:28.415Z,79.63
2023-04-12T03:37:55.819Z,79.19
2023-04-12T03:40:23.909Z,78.97
2023-04-12T03:42:52.929Z,79.01
2023-04-12T03:45:20.898Z,79.18
2023-04-12T03:47:48.728Z,80.32
2023-04-12T03:50:16.947Z,81.05
2023-04-12T03:52:47.266Z,80.43
2023-04-12T03:55:15.066Z,80.32
2023-04-12T03:57:42.459Z,80.02
2023-04-12T04:00:13.359Z,80.25
2023-04-12T04:02:40.954Z,80.17
2023-04-12T04:05:09.030Z,80.87
2023-04-12T04:07:36.636Z,80.33
2023-04-12T04:10:05.488Z,79.39
2023-04-12T04:12:32.924Z,79.24
2023-04-12T04:15:01.001Z,78.94
2023-04-12T04:17:30.089Z,78.66
2023-04-12T04:19:58.044Z,78.04
2023-04-12T04:22:25.518Z,78.09
2023-04-12T04:24:53.332Z,77.60
2023-04-12T04:27:21.084Z,76.98
2023-04-12T04:29:49.180Z,75.67
2023-04-12T04:32:16.696Z,76.55
2023-04-12T04:34:46.054Z,77.22
2023-04-12T04:37:13.501Z,76.52
2023-04-12T04:39:41.423Z,76.88
2023-04-12T04:42:08.931Z,77.33
2023-04-12T04:44:37.004Z,76.16
2023-04-12T04:47:04.866Z,76.32
2023-04-12T04:49:32.667Z,74.78
2023-04-12T04:52:01.811Z,74.35
2023-04-12T04:54:29.918Z,73.09
2023-04-12T04:56:57.513Z,72.51
2023-04-12T04:59:27.458Z,71.84
2023-04-12T05:01:54.948Z,71.59
2023-04-12T05:04:23.031Z,71.69
2023-04-12T05:06:51.095Z,71.29
2023-04-12T05:09:20.778Z,72.85
2023-04-12T05:11:48.294Z,72.59
2023-04-12T05:14:16.313Z,72.61
2023-04-12T05:16:43.784Z,72.55
2023-04-12T05:19:11.819Z,72.24
2023-04-12T05:21:39.548Z,71.86
2023-04-12T05:24:08.544Z,72.80
2023-04-12T05:26:37.426Z,71.61
2023-04-12T05:29:05.410Z,71.63
2023-04-12T05:31:33.068Z,70.31
2023-04-12T05:34:01.030Z,70.60
2023-04-12T05:36:28.942Z,68.52
2023-04-12T05:38:57.687Z,69.63
2023-04-12T05:41:25.336Z,68.26
2023-04-12T05:43:54.704Z,68.56
2023-04-12T05:46:22.208Z,67.64
2023-04-12T05:48:50.135Z,67.09
2023-04-12T05:51:22.886Z,68.66
2023-04-12T05:53:56.740Z,68.37
2023-04-12T05:56:24.408Z,68.16
2023-04-12T05:58:52.318Z,67.62
2023-04-12T06:01:21.306Z,66.15
2023-04-12T06:03:49.514Z,67.43
2023-04-12T06:06:17.178Z,69.23
2023-04-12T06:08:45.324Z,68.59
2023-04-12T06:11:12.982Z,69.37
2023-04-12T06:13:41.475Z,69.05
2023-04-12T06:16:09.259Z,69.20
2023-04-12T06:18:38.812Z,68.28
2023-04-12T06:21:06.807Z,66.76
2023-04-12T06:23:34.724Z,67.12
2023-04-12T06:26:02.265Z,65.70
2023-04-12T06:28:30.381Z,64.90
2023-04-12T06:30:57.930Z,64.03
2023-04-12T06:33:28.178Z,61.78
2023-04-12T06:35:57.351Z,61.81
2023-04-12T06:38:25.117Z,61.97
2023-04-12T06:40:52.853Z,60.18
2023-04-12T06:43:25.859Z,60.41
2023-04-12T06:45:54.938Z,59.09
2023-04-12T06:48:24.535Z,58.16
2023-04-12T06:56:55.486Z,60.24
2023-04-12T06:59:37.882Z,58.63
2023-04-12T07:02:08.047Z,58.46
2023-04-12T07:04:36.091Z,58.12
2023-04-12T07:07:05.040Z,56.49
2023-04-12T07:09:33.488Z,58.14
2023-04-12T07:12:01.290Z,59.33
2023-04-12T07:14:29.395Z,57.98
2023-04-12T07:16:56.847Z,54.51
2023-04-12T07:19:25.193Z,56.18
2023-04-12T07:21:52.817Z,56.54
2023-04-12T07:24:22.264Z,55.94
2023-04-12T07:26:49.913Z,58.83
2023-04-12T07:29:17.865Z,58.47
2023-04-12T07:31:45.492Z,57.37
2023-04-12T07:34:13.829Z,56.06
2023-04-12T07:36:41.399Z,54.17
2023-04-12T07:39:09.470Z,54.53
2023-04-12T07:41:38.961Z,55.73
2023-04-12T07:44:06.970Z,56.05
2023-04-12T07:46:34.589Z,53.80
2023-04-12T07:49:02.653Z,54.44
2023-04-12T07:51:30.206Z,55.49
2023-04-12T07:53:58.339Z,54.22
2023-04-12T07:56:26.190Z,57.01
2023-04-12T07:58:55.441Z,54.77
2023-04-12T08:01:23.041Z,56.86
2023-04-12T08:03:51.142Z,55.98
2023-04-12T08:06:18.807Z,56.28
2023-04-12T08:08:46.700Z,55.92
2023-04-12T08:11:14.452Z,55.66
2023-04-12T08:13:42.354Z,53.12
2023-04-12T08:16:11.405Z,54.26
2023-04-12T08:18:39.281Z,54.72
2023-04-12T08:21:07.184Z,58.83
2023-04-12T08:23:34.984Z,57.11
2023-04-12T08:26:02.491Z,59.64
2023-04-12T08:28:43.650Z,57.15
2023-04-12T08:31:16.733Z,57.06
2023-04-12T08:33:52.123Z,53.48
2023-04-12T08:36:33.606Z,53.87
2023-04-12T08:39:09.816Z,55.02
2023-04-12T08:41:47.037Z,55.96
2023-04-12T08:44:19.843Z,54.45
2023-04-12T08:46:49.991Z,56.25
2023-04-12T08:49:19.087Z,55.56
2023-04-12T08:51:46.929Z,55.88
2023-04-12T08:54:14.821Z,57.93
2023-04-12T08:56:42.834Z,57.00
2023-04-12T08:59:17.859Z,55.22
2023-04-12T09:01:45.636Z,56.29
2023-04-12T09:04:15.071Z,58.02
2023-04-12T09:06:42.611Z,55.52
2023-04-12T09:09:11.205Z,57.73
2023-04-12T09:11:39.247Z,57.19
2023-04-12T09:14:22.506Z,54.38
2023-04-12T09:16:50.585Z,54.06
2023-04-12T09:19:31.975Z,52.25
2023-04-12T09:21:59.597Z,50.96
2023-04-12T09:24:28.554Z,51.09
2023-04-12T09:27:03.380Z,48.09
2023-04-12T09:29:31.978Z,51.86
2023-04-12T09:32:02.644Z,54.88
2023-04-12T09:34:34.241Z,52.48
2023-04-12T09:37:13.155Z,53.66
2023-04-12T09:39:41.303Z,52.44
2023-04-12T09:42:21.349Z,55.11
2023-04-12T09:44:58.647Z,52.86
2023-04-12T09:47:37.606Z,51.40
2023-04-12T09:50:09.016Z,50.72
2023-04-12T09:52:37.220Z,50.36
2023-04-12T09:55:09.636Z,51.91
2023-04-12T09:57:38.127Z,52.22
2023-04-12T10:00:08.270Z,48.60
2023-04-12T10:02:36.280Z,48.28
2023-04-12T10:05:07.612Z,52.61
2023-04-12T10:07:36.491Z,49.95
2023-04-12T10:10:05.682Z,48.38
2023-04-12T10:12:33.677Z,52.25
2023-04-12T10:15:04.725Z,50.47
2023-04-12T10:17:35.243Z,52.56
2023-04-12T10:20:03.889Z,50.46
2023-04-12T10:22:32.976Z,56.32
2023-04-12T10:25:01.140Z,52.81
2023-04-12T10:27:28.798Z,50.54
2023-04-12T10:30:20.665Z,47.47
2023-04-12T10:32:49.160Z,47.78
2023-04-12T10:35:17.152Z,46.90
2023-04-12T10:38:02.101Z,48.31
2023-04-12T10:40:31.947Z,50.67
2023-04-12T10:43:26.624Z,52.49
2023-04-12T10:45:54.776Z,51.92
2023-04-12T10:48:33.045Z,53.39
2023-04-12T10:51:16.785Z,56.64
2023-04-12T10:53:45.986Z,56.14
2023-04-12T10:56:36.410Z,53.60
2023-04-12T10:59:04.888Z,52.61
2023-04-12T11:01:36.622Z,53.43
2023-04-12T11:04:24.274Z,52.33
2023-04-12T11:06:59.155Z,54.51
2023-04-12T11:09:30.366Z,51.22
2023-04-12T11:12:11.189Z,51.82
2023-04-12T11:14:44.959Z,51.65
2023-04-12T11:17:25.736Z,54.22
2023-04-12T11:19:58.824Z,53.67
2023-04-12T11:22:29.352Z,52.62
2023-04-12T11:25:00.248Z,52.27
2023-04-12T11:27:29.562Z,52.84
2023-04-12T11:29:58.903Z,50.31
2023-04-12T11:32:29.107Z,51.35
2023-04-12T11:34:57.823Z,53.23
2023-04-12T11:37:28.993Z,51.69
2023-04-12T11:39:59.253Z,49.47
2023-04-12T11:42:27.886Z,50.64
2023-04-12T11:44:59.825Z,49.50
2023-04-12T11:47:30.233Z,50.00
2023-04-12T11:49:59.113Z,48.98
2023-04-12T11:52:30.286Z,47.83
2023-04-12T11:55:01.487Z,48.24
2023-04-12T11:57:29.620Z,51.01
2023-04-12T11:59:58.545Z,47.38
2023-04-12T12:02:30.280Z,47.73
2023-04-12T12:05:01.413Z,49.21
2023-04-12T12:07:29.893Z,48.89
2023-04-12T12:10:01.394Z,48.75
2023-04-12T12:12:29.571Z,49.90
2023-04-12T12:15:00.390Z,47.38
2023-04-12T12:17:28.533Z,46.80
2023-04-12T12:19:58.043Z,46.63
2023-04-12T12:22:26.111Z,48.95
2023-04-12T12:24:57.143Z,47.93
2023-04-12T12:27:35.947Z,46.64
2023-04-12T12:30:03.868Z,47.89
2023-04-12T12:32:33.755Z,46.17
2023-04-12T12:35:01.982Z,47.04
2023-04-12T12:37:31.098Z,46.90
2023-04-12T12:40:03.191Z,48.57
2023-04-12T12:42:33.764Z,49.74
2023-04-12T12:45:01.293Z,46.07
2023-04-12T12:47:29.663Z,46.00
2023-04-12T12:49:57.134Z,46.20
2023-04-12T12:52:25.216Z,46.56
2023-04-12T12:54:52.844Z,47.72
2023-04-12T12:57:21.079Z,44.56
2023-04-12T12:59:50.042Z,46.49
2023-04-12T13:02:18.241Z,46.54
2023-04-12T13:04:46.140Z,46.54
2023-04-12T13:07:18.034Z,44.13
2023-04-12T13:09:46.116Z,45.16
2023-04-12T13:12:14.053Z,44.75
2023-04-12T13:14:42.004Z,43.33
2023-04-12T13:17:12.427Z,46.32
2023-04-12T13:19:40.018Z,42.21
2023-04-12T13:22:08.193Z,41.36
2023-04-12T13:24:35.810Z,42.96
2023-04-12T13:27:04.928Z,41.49
2023-04-12T13:29:32.983Z,41.31
2023-04-12T13:32:01.185Z,43.18
2023-04-12T13:34:30.965Z,43.60
2023-04-12T13:36:59.421Z,41.33
2023-04-12T13:39:27.184Z,41.64
2023-04-12T13:41:56.923Z,39.94
2023-04-12T13:44:24.485Z,42.09
2023-04-12T13:46:52.709Z,40.12
2023-04-12T13:49:20.201Z,42.93
2023-04-12T13:51:49.934Z,40.79
2023-04-12T13:54:17.676Z,39.92
2023-04-12T13:56:45.965Z,38.34
2023-04-12T13:59:14.143Z,41.28
2023-04-12T14:01:42.037Z,41.70
2023-04-12T14:04:12.560Z,41.76
2023-04-12T14:06:40.910Z,41.38
2023-04-12T14:09:10.210Z,41.89
2023-04-12T14:11:48.357Z,40.28
2023-04-12T14:14:16.955Z,40.75
2023-04-12T14:16:45.201Z,40.81
2023-04-12T14:19:12.948Z,39.49
2023-04-12T14:21:42.880Z,40.94
2023-04-12T14:24:11.899Z,41.46
2023-04-12T14:26:42.718Z,42.48
2023-04-12T14:29:10.358Z,43.43
2023-04-12T14:31:38.701Z,42.41
2023-04-12T14:34:06.341Z,44.21
2023-04-12T14:36:34.647Z,43.35
2023-04-12T14:39:02.258Z,42.83
2023-04-12T14:41:32.157Z,44.02
2023-04-12T14:44:00.319Z,42.74
2023-04-12T14:46:28.911Z,42.95
2023-04-12T14:48:56.691Z,42.42
2023-04-12T14:51:25.376Z,43.37
2023-04-12T14:53:53.106Z,44.03
2023-04-12T14:56:24.986Z,44.25
2023-04-12T14:58:55.183Z,44.61
2023-04-12T15:01:23.889Z,42.70
2023-04-12T15:03:52.360Z,42.23
2023-04-12T15:06:23.486Z,41.95
2023-04-12T15:08:51.140Z,42.75
2023-04-12T15:11:19.438Z,43.50
2023-04-12T15:13:46.826Z,44.19
2023-04-12T15:16:16.323Z,43.42
2023-04-12T15:18:43.934Z,43.95
2023-04-12T15:21:12.144Z,44.96
2023-04-12T15:23:41.520Z,45.73
2023-04-12T15:26:09.480Z,46.07
2023-04-12T15:28:37.081Z,44.02
2023-04-12T15:31:05.907Z,43.26
2023-04-12T15:33:35.164Z,43.33
2023-04-12T15:36:03.702Z,44.49
2023-04-12T15:38:31.535Z,44.25
2023-04-12T15:41:00.810Z,43.08
2023-04-12T15:43:28.784Z,43.54
2023-04-12T15:45:56.825Z,43.32
2023-04-12T15:48:26.180Z,44.85
2023-04-12T15:50:56.499Z,43.25
2023-04-12T15:53:25.327Z,45.56
2023-04-12T15:55:53.725Z,43.86
2023-04-12T15:58:22.048Z,44.07
2023-04-12T16:00:50.628Z,44.59
2023-04-12T16:03:18.535Z,45.01
2023-04-12T16:05:47.208Z,44.74
2023-04-12T16:08:16.330Z,45.12
2023-04-12T16:10:44.641Z,45.26
2023-04-12T16:13:12.312Z,44.70
2023-04-12T16:15:40.904Z,43.70
2023-04-12T16:18:08.771Z,45.11
2023-04-12T16:20:36.892Z,45.42
2023-04-12T16:23:04.466Z,44.80
2023-04-12T16:25:34.530Z,45.88
2023-04-12T16:28:02.577Z,46.01
2023-04-12T16:30:31.197Z,46.81
2023-04-12T16:32:59.557Z,47.34
2023-04-12T16:35:27.553Z,47.49
2023-04-12T16:37:55.664Z,47.79
2023-04-12T16:40:23.582Z,48.00
2023-04-12T16:42:52.853Z,49.71
2023-04-12T16:45:20.541Z,52.13
2023-04-12T16:47:48.710Z,53.76
2023-04-12T16:50:16.225Z,55.20
2023-04-12T16:52:44.562Z,55.77
2023-04-12T16:55:12.617Z,56.32
2023-04-12T16:57:41.853Z,56.71
2023-04-12T17:00:12.937Z,57.64
2023-04-12T17:02:41.483Z,58.26
2023-04-12T17:05:09.920Z,58.96
2023-04-12T17:07:37.971Z,59.58
2023-04-12T17:10:06.784Z,59.83
2023-04-12T17:12:34.573Z,59.60
2023-04-12T17:15:02.056Z,59.69
2023-04-12T17:17:31.592Z,59.47
2023-04-12T17:19:59.305Z,60.20
2023-04-12T17:22:27.265Z,60.26
2023-04-12T17:24:54.973Z,60.61
2023-04-12T17:27:23.099Z,60.90
2023-04-12T17:29:50.605Z,61.24
2023-04-12T17:32:18.569Z,60.95
2023-04-12T17:34:47.613Z,60.95
2023-04-12T17:37:15.753Z,61.09
2023-04-12T17:39:43.564Z,61.22
2023-04-12T17:42:11.894Z,61.17
2023-04-12T17:44:39.444Z,61.32
2023-04-12T17:47:07.636Z,61.46
2023-04-12T17:49:35.158Z,61.62
2023-04-12T17:52:04.852Z,61.92
2023-04-12T17:54:38.348Z,61.76
2023-04-12T17:57:06.886Z,62.30
2023-04-12T17:59:34.355Z,61.91
2023-04-12T18:02:02.701Z,62.69
2023-04-12T18:04:38.440Z,62.41
2023-04-12T18:07:08.181Z,62.32
2023-04-12T18:09:35.856Z,62.36
2023-04-12T18:12:10.213Z,62.14
2023-04-12T18:14:37.818Z,62.46
2023-04-12T18:17:06.042Z,62.47
2023-04-12T18:19:33.916Z,62.24
2023-04-12T18:22:02.006Z,61.97
2023-04-12T18:24:31.495Z,61.93
2023-04-12T18:27:00.670Z,62.17
2023-04-12T18:29:28.277Z,61.68
2023-04-12T18:31:56.738Z,61.73
2023-04-12T18:34:24.722Z,62.26
2023-04-12T18:36:58.443Z,61.91
2023-04-12T18:39:26.239Z,61.75
2023-04-12T18:41:55.936Z,62.24
2023-04-12T18:44:23.988Z,61.70
2023-04-12T18:46:52.335Z,62.10
2023-04-12T18:49:20.119Z,62.01
2023-04-12T18:51:48.196Z,62.08
2023-04-12T18:54:16.031Z,62.26
2023-04-12T18:56:45.680Z,62.17
2023-04-12T18:59:18.047Z,62.29
2023-04-12T19:01:46.726Z,62.53
2023-04-12T19:04:14.551Z,62.49
2023-04-12T19:06:42.977Z,62.40
2023-04-12T19:09:21.373Z,62.20
2023-04-12T19:11:49.363Z,62.47
2023-04-12T19:14:25.856Z,63.19
2023-04-12T19:16:54.117Z,62.31
2023-04-12T19:19:22.102Z,62.88
2023-04-12T19:21:52.893Z,62.55
2023-04-12T19:24:23.441Z,62.70
2023-04-12T19:26:52.159Z,62.81
2023-04-12T19:29:21.836Z,62.83
2023-04-12T19:31:55.664Z,63.33
2023-04-12T19:34:23.453Z,63.61
2023-04-12T19:36:51.510Z,62.86
2023-04-12T19:39:19.273Z,62.79
2023-04-12T19:41:47.490Z,63.22
2023-04-12T19:44:18.024Z,63.36
2023-04-12T19:46:47.741Z,63.74
2023-04-12T19:49:15.310Z,63.57
2023-04-12T19:51:43.925Z,63.80
2023-04-12T19:54:11.561Z,64.14
2023-04-12T19:56:39.721Z,63.89
2023-04-12T19:59:07.305Z,64.22
2023-04-12T20:01:35.345Z,65.06
2023-04-12T20:04:04.514Z,64.98
2023-04-12T20:06:32.875Z,65.01
2023-04-12T20:09:01.043Z,65.83
2023-04-12T20:11:29.614Z,65.97
2023-04-12T20:13:57.375Z,66.04
2023-04-12T20:16:25.723Z,66.26
2023-04-12T20:18:53.293Z,66.58
2023-04-12T20:21:23.677Z,67.01
2023-04-12T20:23:51.758Z,67.50
2023-04-12T20:26:20.850Z,67.81
2023-04-12T20:28:48.806Z,68.12
2023-04-12T20:31:17.599Z,68.30
2023-04-12T20:33:46.105Z,68.97
2023-04-12T20:36:15.630Z,69.23
2023-04-12T20:38:44.836Z,68.76
2023-04-12T20:41:13.084Z,69.18
2023-04-12T20:43:44.455Z,69.96
2023-04-12T20:46:16.089Z,69.99
2023-04-12T20:48:44.405Z,70.51
2023-04-12T20:51:13.886Z,70.92
2023-04-12T20:53:41.667Z,70.81
2023-04-12T20:56:11.443Z,70.85
2023-04-12T20:58:39.288Z,70.88
2023-04-12T21:01:08.071Z,71.33
2023-04-12T21:03:36.096Z,71.39
2023-04-12T21:06:05.366Z,71.50
2023-04-12T21:08:33.054Z,71.69
2023-04-12T21:11:01.285Z,72.15
2023-04-12T21:13:30.583Z,71.98
2023-04-12T21:15:58.398Z,71.94
2023-04-12T21:18:26.011Z,72.20
2023-04-12T21:20:58.178Z,72.23
2023-04-12T21:23:26.028Z,72.36
2023-04-12T21:25:54.050Z,72.54
2023-04-12T21:28:21.571Z,72.56
2023-04-12T21:30:51.417Z,71.83
2023-04-12T21:33:18.900Z,72.26
2023-04-12T21:35:46.782Z,71.93
2023-04-12T21:38:14.221Z,72.19
2023-04-12T21:40:44.932Z,72.17
2023-04-12T21:43:12.545Z,72.12
2023-04-12T21:45:40.399Z,72.24
2023-04-12T21:48:09.389Z,72.59
2023-04-12T21:50:38.010Z,72.66
2023-04-12T21:53:05.641Z,72.61
2023-04-12T21:55:33.440Z,72.40
2023-04-12T21:58:00.965Z,72.07
2023-04-12T22:00:28.866Z,72.09
2023-04-12T22:02:56.536Z,71.85
2023-04-12T22:05:26.350Z,71.55
2023-04-12T22:07:53.880Z,71.35
2023-04-12T22:10:21.965Z,71.60
2023-04-12T22:12:49.487Z,70.97
2023-04-12T22:15:17.762Z,71.19
2023-04-12T22:17:45.848Z,71.55
2023-04-12T22:20:13.799Z,71.35
2023-04-12T22:22:42.728Z,71.32
2023-04-12T22:25:13.342Z,71.24
2023-04-12T22:27:41.264Z,71.22
2023-04-12T22:30:09.791Z,71.35
2023-04-12T22:32:37.214Z,71.59
2023-04-12T22:35:08.805Z,71.70
2023-04-12T22:37:37.352Z,71.89
2023-04-12T22:40:08.488Z,71.64
2023-04-12T22:42:36.159Z,71.69
2023-04-12T22:45:05.581Z,71.37
2023-04-12T22:47:33.293Z,71.34
2023-04-12T22:50:01.621Z,71.13
2023-04-12T22:52:29.571Z,71.15
2023-04-12T22:54:57.548Z,71.00
2023-04-12T22:57:26.462Z,71.16
2023-04-12T22:59:54.684Z,71.26
2023-04-12T23:02:22.295Z,71.07
2023-04-12T23:04:51.738Z,70.93
2023-04-12T23:07:19.236Z,70.49
2023-04-12T23:09:47.273Z,70.50
2023-04-12T23:12:14.749Z,70.69
2023-04-12T23:14:44.362Z,71.16
2023-04-12T23:17:12.025Z,71.43
2023-04-12T23:19:39.938Z,72.05
2023-04-12T23:22:07.507Z,72.54
2023-04-12T23:24:35.508Z,72.73
2023-04-12T23:27:02.946Z,72.87
2023-04-12T23:29:30.800Z,73.41
2023-04-12T23:31:59.963Z,73.08
2023-04-12T23:34:30.891Z,73.57
2023-04-12T23:36:58.447Z,73.54
2023-04-12T23:39:26.574Z,73.70
2023-04-12T23:41:54.001Z,74.02
2023-04-12T23:44:21.951Z,73.73
2023-04-12T23:46:49.778Z,73.15
2023-04-12T23:49:19.364Z,73.33
2023-04-12T23:51:47.060Z,73.18
2023-04-12T23:54:15.119Z,72.75
2023-04-12T23:56:42.640Z,72.91
2023-04-12T23:59:11.048Z,72.94
